Aviation Digital Data Service (ADDS)

Output produced by METARs form (1209 UTC 29 July 2016)
found at http://aviationweather.gov/adds/metars/
 
KDAG 291150Z AUTO 26010KT 10SM CLR 29/06 A2984 RMK AO2 SLP068 T02940061 10367 20294 56003
KDAG 291126Z 2912/3012 28010KT P6SM SCT250 
     FM291900 VRB06KT P6SM FEW120 SCT250 
     FM300100 24014KT P6SM SCT250 
     FM300800 27010KT P6SM SCT250
       
KEDW 291158Z 24007KT 50SM CLR 25/07 A2986 RMK AO2A SLP080 T02460066 10311 20246 50001
TAF KEDW 291002Z 2910/3016 20009KT 9999 FEW200 QNH2985INS 
     BECMG 2921/2922 25015G25KT 9999 FEW200 510009 QNH2979INS 
     TEMPO 3000/3003 25020G30KT 520009 
     BECMG 3003/3004 22009KT 9999 FEW170 QNH2982INS TX43/2922Z TN26/2912Z
       
KVCV 291155Z AUTO 16007KT 10SM CLR 26/06 A2994 RMK AO2
KONT 291153Z 00000KT 10SM CLR 23/13 A2984 RMK AO2 SLP084 T02330128 10261 20228 55003
KONT 291122Z 2912/3018 VRB04KT P6SM FEW250 
     FM292100 26012G20KT P6SM FEW100 FEW200 
     FM300400 VRB04KT P6SM FEW200
       
KNID 291156Z AUTO 21009KT 10SM CLR 31/04 A2986 RMK AO2 SLP078 T03110044 10344 20294 53004 $
TAF COR KNID 2823/2923 21012G22KT FEW110 SCT250 530009 QNH2979INS WND 150V240 
     BECMG 2900/2902 20010KT 9999 SKC 500000 QNH2980INS WND VRB05KT AFT 2910 
     BECMG 2917/2918 24010G15KT 9999 FEW100 QNH2975INS 
     BECMG 2920/2922 24018G27KT 9999 FEW100 520009 QNH2978INS T25/2913Z T45/2823Z LAST NO AMD AFT 2905/ NEXT 0115 COR 0310
       
KSNA 291153Z AUTO 00000KT 10SM CLR A2982 RMK AO2 SLPNO 56003 TSNO $
KSNA 291122Z 2912/3012 VRB04KT P6SM FEW010 
     TEMPO 2912/2915 BKN008 
     FM291800 22009KT P6SM FEW200 
     FM300200 VRB04KT P6SM FEW012 
     FM300900 19003KT P6SM BKN010
       
KSAN 291151Z 32003KT 10SM FEW010 FEW250 21/18 A2982 RMK AO2 SLP099 T02060183 10217 20206 56007
KSAN 291122Z 2912/3018 VRB03KT P6SM FEW010 FEW250 
     TEMPO 2912/2915 BKN008 
     FM291800 28009KT P6SM FEW200 
     FM300200 VRB04KT P6SM FEW012 FEW200 
     FM300800 VRB03KT P6SM BKN012 
     FM301600 20005KT P6SM FEW015
       
KNXP 291156Z VRB05KT 10SM FEW200 31/07 A2991 RMK AO2 SLP083 T03110067 10361 20306 55003 $
TAF KNXP 2909/3009 VRB06KT 9999 FEW200 QNH2987INS 
     BECMG 2922/3000 24014KT 9999 VCTS FEW180 SCT250 QNH2981INS 
     TEMPO 3000/3006 26017G24KT T29/2913Z T44/2823Z
       
KPSP 291153Z 33005KT 10SM CLR 33/11 A2975 RMK AO2 SLP069 T03330106 10378 20328 56002
KPSP 291122Z 2912/3012 VRB05KT P6SM SKC 
     FM291700 11009KT P6SM SCT100 
     FM300200 33010KT P6SM FEW250 
     FM300700 VRB04KT P6SM SCT250
       
KLAX 291153Z 26003KT 10SM FEW008 21/18 A2982 RMK AO2 SLP095 T02110183 10217 20206 56004
KLAX 291121Z 2912/3018 VRB04KT P6SM FEW008 
     FM291600 25006KT P6SM SKC 
     FM292000 25012KT P6SM SKC 
     FM300400 25006KT P6SM SKC 
     FM301000 VRB03KT 6SM BR BKN007 
     FM301600 23006KT P6SM SKC
       
KCNO 291153Z AUTO 00000KT 7SM CLR 21/13 A2985 RMK AO2 SLP099 T02110133 10250 20206 55003
KSMO 291151Z AUTO 00000KT 10SM CLR 21/17 A2982 RMK AO2 SLP096 T02060167 10217 20206 56006
KLGB 291153Z 30003KT 10SM CLR 22/18 A2981 RMK AO2 SLP095 T02170183 10228 20217 58003
KLGB 291121Z 2912/3012 VRB03KT P6SM SKC 
     FM292000 19009KT P6SM SKC 
     FM300000 30008KT P6SM SKC 
     FM300500 VRB03KT P6SM SKC
       
KVNY 291151Z 00000KT 10SM CLR 23/15 A2983 RMK AO2 SLP091 T02280150 10261 20228 58004
KVNY 291121Z 2912/3012 VRB05KT P6SM SKC 
     FM292000 14010KT P6SM SKC 
     FM300500 VRB03KT P6SM SKC
       
KBUR 291153Z AUTO 00000KT 10SM CLR 23/14 A2983 RMK AO2 SLP085 T02280144 10250 20228 58005 TSNO
KBUR 291121Z 2912/3012 VRB05KT P6SM SKC 
     FM291900 17010KT P6SM SKC 
     FM300500 VRB03KT P6SM SKC
       
KBFL 291154Z AUTO 07003KT 8SM CLR 27/08 A2980 RMK AO2 SLP082 T02670083 10333 20267 52002
KBFL 291123Z 2912/3012 VRB03KT P6SM SKC 
     FM292100 31007KT P6SM SKC 
     FM300400 35007KT P6SM SKC 
     FM300800 VRB03KT P6SM SKC
       
KPMD 291153Z AUTO 20006KT 10SM CLR 25/07 A2991 RMK AO2 SLP089 T02500072 10306 20250 55001 $
KPMD 291121Z 2912/3012 21007KT P6SM SKC 
     FM292000 23015G23KT P6SM SCT080 SCT200 
     FM300400 25010KT P6SM SKC 
     FM301000 VRB05KT P6SM SKC
       
KOXR 291151Z AUTO 28004KT 8SM CLR 17/16 A2982 RMK AO2 SLP098 T01720161 10189 20172 50000
KOXR 291121Z 2912/3012 VRB03KT P6SM SKC 
     FM291700 27006KT P6SM SKC 
     FM291900 27012KT P6SM SKC 
     FM300400 VRB03KT P6SM SKC 
     FM301000 VRB03KT P6SM BKN007
       
KWJF 291156Z 10003KT 10SM CLR 24/04 A2990 RMK AO2 SLP096 T02440044 10317 20239 52004
KWJF 291121Z 2912/3012 VRB05KT P6SM SKC 
     FM291800 22008KT P6SM SKC 
     FM292000 23015G23KT P6SM SCT080 SCT200 
     FM300400 25012KT P6SM SKC
       
KCMA 291155Z AUTO 00000KT 9SM CLR 18/16 A2982 RMK AO2 SLP107 T01780161 10200 20178 50001
KFAT 291153Z 00000KT 10SM BKN250 26/13 A2978 RMK AO2 SLP078 T02560128 10317 20256 56000
KFAT 291123Z 2912/3012 VRB03KT P6SM SKC 
     FM292100 30008KT P6SM SKC 
     FM300900 VRB03KT P6SM SKC
       
KEED 291156Z AUTO 00000KT 10SM CLR 36/13 A2974 RMK AO2 SLP026 T03610128 10411 20356 53001
KEED 291126Z 2912/3012 VRB06KT P6SM FEW110 
     FM291800 19010KT P6SM VCSH SCT110 BKN250 
     FM300300 24008KT P6SM SCT110 BKN250
       
KLSV 291158Z AUTO 01005KT 10SM OVC190 33/10 A2981 RMK AO2 SLP062 T03340097 10387 20332 52007 $
TAF AMD KLSV 290346Z 2903/3007 VRB15G25KT 9999 VCTS SCT170CB QNH2971INS 
     TEMPO 2903/2906 VRB25G35KT SCT140CB 
     BECMG 2905/2906 VRB06KT 9999 NSW SCT150 SCT230 QNH2978INS 
     BECMG 2918/2919 23009KT 9999 FEW200 QNH2977INS 
     BECMG 3000/3001 VRB15G25KT 9999 VCTS SCT160CB QNH2973INS 
     BECMG 3004/3005 VRB06KT 9999 NSW SCT100 QNH2975INS TX45/2923Z TN30/2912Z
       
KLAS 291156Z 16003KT 10SM FEW140 BKN200 34/09 A2980 RMK AO2 SLP055 T03440089 10389 20344 53008
KLAS 291126Z 2912/3012 VRB05KT P6SM FEW140 BKN190 
     FM292100 VRB06KT P6SM VCSH FEW100 BKN140 BKN190 
     FM300000 20007KT P6SM FEW120 BKN250
       
KHII 291150Z AUTO 01003KT 10SM CLR 34/15 A2973 RMK AO2
KIFP 291155Z AUTO 16007KT 10SM CLR 36/10 A2972 RMK AO2
KIFP 291126Z 2912/3012 VRB05KT P6SM SCT110 
     FM291400 20010KT P6SM SCT120 BKN250 
     FM291800 19010G18KT P6SM VCSH SCT120 BKN250 
     FM300200 16007KT P6SM SCT120 BKN250